createdAt,value
2023-04-14T00:00:55.189Z,66.0
2023-04-14T00:05:55.209Z,66.0
2023-04-14T00:10:55.187Z,66.0
2023-04-14T00:15:55.200Z,66.5
2023-04-14T00:20:55.195Z,66.5
2023-04-14T00:25:55.200Z,66.5
2023-04-14T00:30:55.233Z,66.5
2023-04-14T00:35:55.207Z,66.5
2023-04-14T00:40:55.213Z,66.5
2023-04-14T00:45:55.246Z,66.5
2023-04-14T00:50:55.207Z,67.0
2023-04-14T00:55:55.227Z,67.0
2023-04-14T01:00:55.213Z,67.0
2023-04-14T01:05:55.224Z,67.0
2023-04-14T01:10:55.226Z,67.0
2023-04-14T01:15:55.260Z,67.0
2023-04-14T01:20:55.238Z,67.0
2023-04-14T01:25:55.241Z,67.0
2023-04-14T01:30:55.219Z,67.5
2023-04-14T01:35:55.236Z,67.5
2023-04-14T01:40:55.231Z,67.5
2023-04-14T01:45:55.303Z,67.5
2023-04-14T01:50:55.228Z,67.5
2023-04-14T01:55:55.249Z,67.5
2023-04-14T02:00:55.257Z,67.5
2023-04-14T02:05:55.256Z,68.0
2023-04-14T02:10:55.244Z,67.5
2023-04-14T02:15:55.242Z,68.0
2023-04-14T02:20:55.345Z,68.0
2023-04-14T02:25:55.243Z,68.0
2023-04-14T02:30:55.298Z,68.5
2023-04-14T02:35:55.349Z,69.0
2023-04-14T02:40:55.350Z,69.0
2023-04-14T02:45:55.381Z,69.0
2023-04-14T02:50:55.459Z,69.0
2023-04-14T02:55:55.366Z,69.5
2023-04-14T03:00:55.564Z,69.5
2023-04-14T03:05:55.742Z,69.5
2023-04-14T03:10:55.361Z,69.5
2023-04-14T03:15:55.429Z,70.0
2023-04-14T03:20:55.740Z,70.0
2023-04-14T03:25:55.375Z,70.0
2023-04-14T03:30:55.453Z,70.0
2023-04-14T03:35:55.379Z,70.0
2023-04-14T03:40:55.380Z,70.0
2023-04-14T03:45:55.407Z,70.0
2023-04-14T03:50:55.369Z,70.5
2023-04-14T03:55:55.383Z,70.5
2023-04-14T04:00:55.408Z,70.5
2023-04-14T04:05:55.394Z,71.0
2023-04-14T04:10:55.525Z,71.5
2023-04-14T04:15:55.411Z,71.0
2023-04-14T04:20:55.399Z,71.5
2023-04-14T04:25:55.404Z,72.0
2023-04-14T04:30:55.400Z,71.5
2023-04-14T04:35:55.404Z,71.5
2023-04-14T04:40:55.413Z,71.5
2023-04-14T04:45:55.434Z,71.5
2023-04-14T04:50:55.409Z,71.5
2023-04-14T04:55:55.412Z,71.5
2023-04-14T05:00:55.449Z,71.5
2023-04-14T05:05:55.418Z,71.5
2023-04-14T05:10:55.704Z,71.5
2023-04-14T05:15:55.451Z,71.5
2023-04-14T05:20:55.504Z,72.0
2023-04-14T05:25:55.441Z,72.0
2023-04-14T05:30:55.473Z,72.0
2023-04-14T05:35:55.440Z,72.0
2023-04-14T05:40:55.449Z,72.0
2023-04-14T05:45:55.435Z,72.0
2023-04-14T05:50:55.440Z,73.0
2023-04-14T05:55:55.449Z,73.0
2023-04-14T06:00:55.454Z,74.0
2023-04-14T06:05:55.465Z,74.0
2023-04-14T06:10:55.476Z,73.5
2023-04-14T06:15:55.628Z,73.5
2023-04-14T06:20:55.363Z,73.5
2023-04-14T06:25:55.484Z,73.5
2023-04-14T06:30:55.374Z,74.0
2023-04-14T06:35:55.395Z,74.0
2023-04-14T06:40:55.503Z,74.0
2023-04-14T06:45:55.697Z,74.0
2023-04-14T06:50:55.502Z,74.0
2023-04-14T06:55:55.496Z,74.5
2023-04-14T07:00:55.614Z,75.0
2023-04-14T07:05:55.510Z,75.0
2023-04-14T07:10:55.518Z,74.0
2023-04-14T07:15:55.599Z,73.5
2023-04-14T07:20:55.542Z,72.0
2023-04-14T07:25:55.562Z,69.0
2023-04-14T07:30:55.483Z,68.0
2023-04-14T07:36:03.806Z,67.0
2023-04-14T07:40:55.471Z,67.0
2023-04-14T07:45:55.477Z,65.5
2023-04-14T07:50:55.444Z,66.0
2023-04-14T07:55:55.464Z,65.5
2023-04-14T08:00:55.460Z,64.5
2023-04-14T08:05:55.483Z,65.0
2023-04-14T08:10:55.465Z,62.5
2023-04-14T08:15:55.525Z,63.0
2023-04-14T08:20:55.507Z,61.5
2023-04-14T08:25:55.500Z,61.5
2023-04-14T08:30:55.488Z,59.5
2023-04-14T08:35:59.398Z,60.0
2023-04-14T08:40:55.492Z,59.0
2023-04-14T08:45:55.579Z,58.5
2023-04-14T08:50:55.550Z,57.5
2023-04-14T08:55:57.953Z,56.5
2023-04-14T09:00:55.525Z,56.0
2023-04-14T09:05:55.533Z,56.5
2023-04-14T09:10:55.513Z,56.5
2023-04-14T09:15:55.516Z,52.0
2023-04-14T09:21:29.941Z,54.5
2023-04-14T09:25:55.527Z,54.5
2023-04-14T09:30:55.593Z,53.0
2023-04-14T09:35:55.554Z,52.0
2023-04-14T09:40:57.023Z,51.5
2023-04-14T09:45:55.643Z,51.5
2023-04-14T09:50:55.563Z,51.0
2023-04-14T09:55:55.579Z,51.5
2023-04-14T10:00:55.548Z,52.5
2023-04-14T10:05:55.549Z,51.0
2023-04-14T10:10:55.558Z,50.5
2023-04-14T10:15:55.636Z,48.5
2023-04-14T10:20:55.682Z,48.5
2023-04-14T10:25:55.686Z,48.5
2023-04-14T10:30:55.558Z,47.0
2023-04-14T10:35:55.712Z,46.0
2023-04-14T10:40:55.850Z,47.0
2023-04-14T10:45:55.572Z,47.0
2023-04-14T10:50:55.601Z,45.5
2023-04-14T10:55:55.585Z,44.5
2023-04-14T11:00:55.620Z,44.5
2023-04-14T11:05:55.587Z,44.0
2023-04-14T11:10:55.596Z,43.0
2023-04-14T11:15:55.705Z,44.0
2023-04-14T11:20:55.668Z,45.0
2023-04-14T11:25:55.652Z,43.0
2023-04-14T11:30:55.615Z,44.5
2023-04-14T11:35:55.780Z,43.5
2023-04-14T11:40:55.618Z,42.5
2023-04-14T11:45:55.692Z,43.0
2023-04-14T11:50:55.640Z,44.0
2023-04-14T11:55:55.653Z,45.0
2023-04-14T12:00:56.286Z,43.5
2023-04-14T12:05:55.653Z,42.0
2023-04-14T12:10:55.653Z,42.0
2023-04-14T12:15:55.680Z,42.0
2023-04-14T12:20:55.659Z,40.5
2023-04-14T12:25:55.672Z,40.0
2023-04-14T12:30:55.659Z,40.5
2023-04-14T12:35:55.655Z,40.5
2023-04-14T12:40:55.681Z,38.0
2023-04-14T12:45:55.670Z,38.0
2023-04-14T12:50:55.678Z,36.5
2023-04-14T12:55:55.670Z,37.0
2023-04-14T13:00:55.728Z,36.5
2023-04-14T13:05:55.691Z,36.0
2023-04-14T13:10:55.708Z,35.0
2023-04-14T13:16:16.281Z,35.5
2023-04-14T13:20:55.699Z,35.5
2023-04-14T13:25:55.797Z,35.0
2023-04-14T13:30:55.702Z,36.5
2023-04-14T13:35:55.845Z,36.5
2023-04-14T13:40:55.721Z,37.0
2023-04-14T13:45:55.782Z,36.0
2023-04-14T13:50:55.906Z,37.0
2023-04-14T13:55:55.707Z,37.5
2023-04-14T14:00:55.809Z,37.0
2023-04-14T14:05:55.729Z,37.0
2023-04-14T14:10:55.736Z,37.0
2023-04-14T14:15:55.769Z,38.0
2023-04-14T14:20:55.734Z,37.5
2023-04-14T14:25:55.842Z,38.0
2023-04-14T14:30:55.781Z,36.0
2023-04-14T14:35:55.730Z,37.5
2023-04-14T14:40:55.734Z,36.0
2023-04-14T14:45:55.743Z,36.0
2023-04-14T14:50:55.770Z,37.0
2023-04-14T15:00:55.694Z,36.5
2023-04-14T15:05:55.709Z,36.5
2023-04-14T15:10:55.719Z,35.5
2023-04-14T15:15:55.793Z,36.5
2023-04-14T15:20:55.764Z,35.5
2023-04-14T15:25:55.787Z,36.0
2023-04-14T15:30:55.783Z,35.5
2023-04-14T15:35:55.818Z,35.5
2023-04-14T15:40:55.818Z,36.0
2023-04-14T15:45:55.863Z,36.0
2023-04-14T15:50:55.789Z,36.5
2023-04-14T15:55:55.795Z,35.5
2023-04-14T16:00:55.812Z,35.5
2023-04-14T16:05:55.809Z,36.5
2023-04-14T16:10:55.816Z,36.5
2023-04-14T16:20:55.827Z,35.0
2023-04-14T16:25:55.823Z,35.5
2023-04-14T16:30:55.859Z,36.0
2023-04-14T16:35:55.833Z,36.0
2023-04-14T16:40:55.840Z,36.5
2023-04-14T16:45:55.864Z,37.0
2023-04-14T16:50:55.871Z,37.0
2023-04-14T16:55:55.841Z,37.5
2023-04-14T17:00:55.841Z,38.5
2023-04-14T17:05:55.823Z,38.0
2023-04-14T17:10:55.829Z,37.0
2023-04-14T17:16:07.721Z,37.5
2023-04-14T17:20:55.827Z,37.5
2023-04-14T17:25:55.834Z,37.0
2023-04-14T17:30:55.847Z,37.5
2023-04-14T17:35:55.833Z,37.5
2023-04-14T17:40:55.835Z,38.0
2023-04-14T17:45:55.858Z,39.0
2023-04-14T17:50:55.840Z,39.0
2023-04-14T17:55:55.842Z,39.5
2023-04-14T18:00:55.882Z,39.5
2023-04-14T18:05:55.853Z,40.0
2023-04-14T18:10:55.848Z,40.5
2023-04-14T18:15:55.849Z,40.5
2023-04-14T18:20:55.853Z,40.5
2023-04-14T18:30:56.046Z,41.0
2023-04-14T18:35:55.893Z,41.0
2023-04-14T18:40:55.864Z,42.0
2023-04-14T18:45:55.931Z,43.0
2023-04-14T18:50:56.649Z,43.5
2023-04-14T18:55:55.902Z,44.5
2023-04-14T19:00:55.859Z,45.5
2023-04-14T19:05:55.876Z,46.0
2023-04-14T19:10:55.870Z,46.0
2023-04-14T19:15:55.896Z,47.0
2023-04-14T19:20:55.878Z,47.0
2023-04-14T19:25:55.878Z,47.0
2023-04-14T19:30:55.883Z,47.5
2023-04-14T19:35:55.874Z,47.5
2023-04-14T19:40:55.887Z,47.0
2023-04-14T19:45:55.887Z,47.5
2023-04-14T19:50:55.889Z,47.5
2023-04-14T19:55:55.995Z,48.0
2023-04-14T20:00:55.944Z,48.5
2023-04-14T20:05:55.903Z,48.5
2023-04-14T20:10:55.899Z,48.5
2023-04-14T20:15:55.896Z,48.5
2023-04-14T20:20:55.902Z,48.5
2023-04-14T20:25:56.139Z,48.5
2023-04-14T20:30:56.247Z,48.5
2023-04-14T20:35:55.924Z,48.5
2023-04-14T20:40:55.917Z,49.5
2023-04-14T20:45:56.007Z,50.0
2023-04-14T20:50:55.927Z,50.5
2023-04-14T20:55:55.920Z,51.0
2023-04-14T21:00:55.942Z,51.5
2023-04-14T21:05:55.933Z,51.0
2023-04-14T21:11:16.811Z,51.0
2023-04-14T21:15:57.477Z,51.5
2023-04-14T21:20:55.932Z,51.5
2023-04-14T21:25:55.938Z,51.5
2023-04-14T21:30:56.036Z,51.5
2023-04-14T21:35:56.048Z,51.5
2023-04-14T21:40:55.956Z,51.5
2023-04-14T21:45:56.107Z,52.0
2023-04-14T21:50:56.042Z,52.0
2023-04-14T22:00:56.077Z,53.0
2023-04-14T22:05:56.056Z,53.0
2023-04-14T22:10:56.056Z,53.0
2023-04-14T22:15:56.052Z,53.0
2023-04-14T22:20:56.063Z,53.0
2023-04-14T22:25:56.070Z,53.5
2023-04-14T22:30:56.109Z,53.5
2023-04-14T22:35:56.067Z,54.0
2023-04-14T22:40:56.069Z,54.0
2023-04-14T22:45:56.092Z,54.5
2023-04-14T22:50:56.072Z,54.5
2023-04-14T22:55:56.076Z,56.5
2023-04-14T23:00:56.076Z,57.0
2023-04-14T23:05:56.075Z,57.5
2023-04-14T23:10:56.066Z,57.5
2023-04-14T23:15:56.135Z,58.0
2023-04-14T23:20:56.071Z,58.0
2023-04-14T23:25:56.080Z,58.5
2023-04-14T23:30:56.090Z,58.5
2023-04-14T23:35:56.082Z,58.5
2023-04-14T23:40:56.084Z,58.0
2023-04-14T23:45:56.095Z,57.5
2023-04-14T23:51:14.105Z,57.5
2023-04-14T23:55:56.101Z,58.0
